Terminal Aerodrome Forecast
Issued by NWS

Home | Current Version | Previous Version | Text Only | Print | Product List | Glossary On
Versions: 1 2 3 4 5 6 7 8 9 10 11 12
089
FTUS46 KHNX 251128
TAFBFL
TAF
KBFL 251128Z 2512/2612 VRB03KT P6SM SKC
     FM251900 30009G15KT P6SM SKC
     FM260400 04005KT P6SM SKC=

USA.gov is the U.S. government's official web portal to all federal, state and local government web resources and services.